sensor_id;sensor_type;location;lat;lon;timestamp;pressure;altitude;pressure_sealevel;temperature;humidity
12594;BME280;6362;50.208;9.182;2023-12-20T00:01:16;99856.13;;;4.04;100.00
12594;BME280;6362;50.208;9.182;2023-12-20T00:03:42;99849.91;;;3.91;100.00
12594;BME280;6362;50.208;9.182;2023-12-20T00:06:07;99850.88;;;4.00;100.00
12594;BME280;6362;50.208;9.182;2023-12-20T00:08:33;99850.19;;;4.07;100.00
12594;BME280;6362;50.208;9.182;2023-12-20T00:10:58;99847.53;;;4.02;100.00
12594;BME280;6362;50.208;9.182;2023-12-20T00:13:24;99843.22;;;4.01;100.00
12594;BME280;6362;50.208;9.182;2023-12-20T00:15:49;99834.56;;;3.96;100.00
12594;BME280;6362;50.208;9.182;2023-12-20T00:18:15;99838.09;;;4.03;100.00
12594;BME280;6362;50.208;9.182;2023-12-20T00:20:40;99831.19;;;4.00;100.00
12594;BME280;6362;50.208;9.182;2023-12-20T00:23:05;99828.94;;;4.18;100.00
12594;BME280;6362;50.208;9.182;2023-12-20T00:25:33;99826.34;;;4.18;100.00
12594;BME280;6362;50.208;9.182;2023-12-20T00:27:58;99824.56;;;4.16;100.00
12594;BME280;6362;50.208;9.182;2023-12-20T00:30:24;99825.31;;;4.07;100.00
12594;BME280;6362;50.208;9.182;2023-12-20T00:32:49;99820.06;;;4.01;100.00
12594;BME280;6362;50.208;9.182;2023-12-20T00:35:18;99826.16;;;4.08;100.00
12594;BME280;6362;50.208;9.182;2023-12-20T00:37:43;99821.81;;;4.04;100.00
12594;BME280;6362;50.208;9.182;2023-12-20T00:40:09;99815.75;;;4.00;100.00
12594;BME280;6362;50.208;9.182;2023-12-20T00:42:35;99814.00;;;3.99;100.00
12594;BME280;6362;50.208;9.182;2023-12-20T00:45:06;99813.19;;;4.00;100.00
12594;BME280;6362;50.208;9.182;2023-12-20T00:47:31;99816.72;;;4.07;100.00
12594;BME280;6362;50.208;9.182;2023-12-20T00:49:57;99808.25;;;4.12;100.00
12594;BME280;6362;50.208;9.182;2023-12-20T00:52:23;99810.66;;;4.05;100.00
12594;BME280;6362;50.208;9.182;2023-12-20T00:54:48;99811.38;;;3.94;100.00
12594;BME280;6362;50.208;9.182;2023-12-20T00:57:14;99814.81;;;3.95;100.00
12594;BME280;6362;50.208;9.182;2023-12-20T00:59:40;99813.09;;;3.95;100.00
12594;BME280;6362;50.208;9.182;2023-12-20T01:02:05;99812.16;;;3.90;100.00
12594;BME280;6362;50.208;9.182;2023-12-20T01:04:31;99815.69;;;3.95;100.00
12594;BME280;6362;50.208;9.182;2023-12-20T01:06:56;99814.06;;;4.02;100.00
12594;BME280;6362;50.208;9.182;2023-12-20T01:09:22;99817.34;;;3.93;100.00
12594;BME280;6362;50.208;9.182;2023-12-20T01:11:52;99817.31;;;3.92;100.00
12594;BME280;6362;50.208;9.182;2023-12-20T01:14:17;99809.56;;;3.89;100.00
12594;BME280;6362;50.208;9.182;2023-12-20T01:16:42;99811.31;;;3.91;100.00
12594;BME280;6362;50.208;9.182;2023-12-20T01:19:08;99802.06;;;4.03;100.00
12594;BME280;6362;50.208;9.182;2023-12-20T01:21:33;99799.31;;;3.93;100.00
12594;BME280;6362;50.208;9.182;2023-12-20T01:23:59;99800.25;;;3.95;100.00
12594;BME280;6362;50.208;9.182;2023-12-20T01:26:24;99800.09;;;3.88;100.00
12594;BME280;6362;50.208;9.182;2023-12-20T01:28:50;99792.47;;;3.92;100.00
12594;BME280;6362;50.208;9.182;2023-12-20T01:31:15;99797.50;;;3.86;100.00
12594;BME280;6362;50.208;9.182;2023-12-20T01:33:40;99782.91;;;3.84;100.00
12594;BME280;6362;50.208;9.182;2023-12-20T01:36:06;99794.91;;;3.83;100.00
12594;BME280;6362;50.208;9.182;2023-12-20T01:38:31;99783.75;;;3.84;100.00
12594;BME280;6362;50.208;9.182;2023-12-20T01:40:57;99791.44;;;3.83;100.00
12594;BME280;6362;50.208;9.182;2023-12-20T01:43:23;99792.25;;;3.80;100.00
12594;BME280;6362;50.208;9.182;2023-12-20T01:45:48;99791.41;;;3.81;100.00
12594;BME280;6362;50.208;9.182;2023-12-20T01:48:14;99794.91;;;3.83;100.00
12594;BME280;6362;50.208;9.182;2023-12-20T01:50:41;99793.94;;;3.78;100.00
12594;BME280;6362;50.208;9.182;2023-12-20T01:53:09;99799.94;;;3.79;100.00
12594;BME280;6362;50.208;9.182;2023-12-20T01:55:37;99788.75;;;3.77;100.00
12594;BME280;6362;50.208;9.182;2023-12-20T01:58:05;99793.97;;;3.80;100.00
12594;BME280;6362;50.208;9.182;2023-12-20T02:00:31;99789.78;;;3.86;100.00
12594;BME280;6362;50.208;9.182;2023-12-20T02:03:00;99790.53;;;3.81;100.00
12594;BME280;6362;50.208;9.182;2023-12-20T02:05:26;99784.56;;;3.82;100.00
12594;BME280;6362;50.208;9.182;2023-12-20T02:07:53;99784.59;;;3.83;100.00
12594;BME280;6362;50.208;9.182;2023-12-20T02:10:18;99801.81;;;3.87;100.00
12594;BME280;6362;50.208;9.182;2023-12-20T02:12:44;99806.84;;;3.81;100.00
12594;BME280;6362;50.208;9.182;2023-12-20T02:15:09;99805.97;;;3.81;100.00
12594;BME280;6362;50.208;9.182;2023-12-20T02:17:36;99807.72;;;3.82;100.00
12594;BME280;6362;50.208;9.182;2023-12-20T02:20:03;99813.69;;;3.79;100.00
12594;BME280;6362;50.208;9.182;2023-12-20T02:22:29;99804.25;;;3.80;100.00
12594;BME280;6362;50.208;9.182;2023-12-20T02:24:54;99805.97;;;3.79;100.00
12594;BME280;6362;50.208;9.182;2023-12-20T02:27:20;99802.53;;;3.79;100.00
12594;BME280;6362;50.208;9.182;2023-12-20T02:29:47;99803.38;;;3.79;100.00
12594;BME280;6362;50.208;9.182;2023-12-20T02:32:13;99798.25;;;3.81;100.00
12594;BME280;6362;50.208;9.182;2023-12-20T02:34:38;99795.66;;;3.78;100.00
12594;BME280;6362;50.208;9.182;2023-12-20T02:37:04;99784.47;;;3.77;100.00
12594;BME280;6362;50.208;9.182;2023-12-20T02:39:29;99796.63;;;3.84;100.00
12594;BME280;6362;50.208;9.182;2023-12-20T02:41:55;99796.53;;;3.78;100.00
12594;BME280;6362;50.208;9.182;2023-12-20T02:44:20;99782.75;;;3.76;100.00
12594;BME280;6362;50.208;9.182;2023-12-20T02:46:46;99769.13;;;3.82;100.00
12594;BME280;6362;50.208;9.182;2023-12-20T02:49:12;99775.94;;;3.78;100.00
12594;BME280;6362;50.208;9.182;2023-12-20T02:51:37;99779.31;;;3.77;100.00
12594;BME280;6362;50.208;9.182;2023-12-20T02:54:05;99783.75;;;3.84;100.00
12594;BME280;6362;50.208;9.182;2023-12-20T02:56:32;99783.69;;;3.80;100.00
12594;BME280;6362;50.208;9.182;2023-12-20T02:58:58;99795.72;;;3.82;100.00
12594;BME280;6362;50.208;9.182;2023-12-20T03:01:23;99791.38;;;3.78;100.00
12594;BME280;6362;50.208;9.182;2023-12-20T03:03:49;99789.63;;;3.77;100.00
12594;BME280;6362;50.208;9.182;2023-12-20T03:06:18;99786.19;;;3.77;100.00
12594;BME280;6362;50.208;9.182;2023-12-20T03:08:45;99775.09;;;3.79;100.00
12594;BME280;6362;50.208;9.182;2023-12-20T03:11:10;99788.84;;;3.81;100.00
12594;BME280;6362;50.208;9.182;2023-12-20T03:13:36;99787.13;;;3.82;100.00
12594;BME280;6362;50.208;9.182;2023-12-20T03:16:08;99783.69;;;3.81;100.00
12594;BME280;6362;50.208;9.182;2023-12-20T03:18:34;99794.75;;;3.77;100.00
12594;BME280;6362;50.208;9.182;2023-12-20T03:20:59;99784.63;;;3.86;100.00
12594;BME280;6362;50.208;9.182;2023-12-20T03:23:24;99787.09;;;3.79;100.00
12594;BME280;6362;50.208;9.182;2023-12-20T03:25:51;99793.91;;;3.77;100.00
12594;BME280;6362;50.208;9.182;2023-12-20T03:28:16;99785.53;;;3.88;100.00
12594;BME280;6362;50.208;9.182;2023-12-20T03:30:42;99783.84;;;3.89;100.00
12594;BME280;6362;50.208;9.182;2023-12-20T03:33:07;99778.63;;;3.84;100.00
12594;BME280;6362;50.208;9.182;2023-12-20T03:35:33;99783.72;;;3.83;100.00
12594;BME280;6362;50.208;9.182;2023-12-20T03:37:58;99795.66;;;3.79;100.00
12594;BME280;6362;50.208;9.182;2023-12-20T03:40:25;99794.00;;;3.83;100.00
12594;BME280;6362;50.208;9.182;2023-12-20T03:42:51;99788.81;;;3.80;100.00
12594;BME280;6362;50.208;9.182;2023-12-20T03:45:16;99802.56;;;3.82;100.00
12594;BME280;6362;50.208;9.182;2023-12-20T03:47:42;99799.22;;;3.86;100.00
12594;BME280;6362;50.208;9.182;2023-12-20T03:50:07;99803.56;;;3.90;100.00
12594;BME280;6362;50.208;9.182;2023-12-20T03:52:33;99808.63;;;3.85;100.00
12594;BME280;6362;50.208;9.182;2023-12-20T03:54:58;99802.66;;;3.88;100.00
12594;BME280;6362;50.208;9.182;2023-12-20T03:57:24;99815.53;;;3.88;100.00
12594;BME280;6362;50.208;9.182;2023-12-20T03:59:49;99816.38;;;3.88;100.00
12594;BME280;6362;50.208;9.182;2023-12-20T04:02:15;99811.19;;;3.84;100.00
12594;BME280;6362;50.208;9.182;2023-12-20T04:04:40;99812.28;;;3.98;100.00
12594;BME280;6362;50.208;9.182;2023-12-20T04:07:07;99814.66;;;3.87;100.00
12594;BME280;6362;50.208;9.182;2023-12-20T04:09:32;99816.34;;;3.84;100.00
12594;BME280;6362;50.208;9.182;2023-12-20T04:11:58;99808.63;;;3.84;100.00
12594;BME280;6362;50.208;9.182;2023-12-20T04:14:23;99806.84;;;3.81;100.00
12594;BME280;6362;50.208;9.182;2023-12-20T04:16:50;99806.75;;;3.75;100.00
12594;BME280;6362;50.208;9.182;2023-12-20T04:19:15;99820.47;;;3.76;100.00
12594;BME280;6362;50.208;9.182;2023-12-20T04:21:41;99818.72;;;3.73;100.00
12594;BME280;6362;50.208;9.182;2023-12-20T04:24:06;99823.84;;;3.73;100.00
12594;BME280;6362;50.208;9.182;2023-12-20T04:26:32;99833.31;;;3.74;100.00
12594;BME280;6362;50.208;9.182;2023-12-20T04:28:57;99821.28;;;3.73;100.00
12594;BME280;6362;50.208;9.182;2023-12-20T04:31:23;99823.78;;;3.70;100.00
12594;BME280;6362;50.208;9.182;2023-12-20T04:33:49;99820.34;;;3.68;100.00
12594;BME280;6362;50.208;9.182;2023-12-20T04:36:14;99837.50;;;3.70;100.00
12594;BME280;6362;50.208;9.182;2023-12-20T04:38:39;99831.50;;;3.70;100.00
12594;BME280;6362;50.208;9.182;2023-12-20T04:41:05;99841.00;;;3.73;100.00
12594;BME280;6362;50.208;9.182;2023-12-20T04:43:30;99843.53;;;3.71;100.00
12594;BME280;6362;50.208;9.182;2023-12-20T04:45:56;99842.81;;;3.78;100.00
12594;BME280;6362;50.208;9.182;2023-12-20T04:48:21;99840.16;;;3.75;100.00
12594;BME280;6362;50.208;9.182;2023-12-20T04:50:47;99842.81;;;3.78;100.00
12594;BME280;6362;50.208;9.182;2023-12-20T04:53:12;99854.75;;;3.75;100.00
12594;BME280;6362;50.208;9.182;2023-12-20T04:55:38;99844.53;;;3.79;100.00
12594;BME280;6362;50.208;9.182;2023-12-20T04:58:04;99849.66;;;3.78;100.00
12594;BME280;6362;50.208;9.182;2023-12-20T05:00:29;99837.63;;;3.77;100.00
12594;BME280;6362;50.208;9.182;2023-12-20T05:02:55;99842.81;;;3.78;100.00
12594;BME280;6362;50.208;9.182;2023-12-20T05:05:20;99841.94;;;3.78;100.00
12594;BME280;6362;50.208;9.182;2023-12-20T05:07:46;99846.25;;;3.79;100.00
12594;BME280;6362;50.208;9.182;2023-12-20T05:10:11;99840.16;;;3.75;100.00
12594;BME280;6362;50.208;9.182;2023-12-20T05:12:37;99849.63;;;3.76;100.00
12594;BME280;6362;50.208;9.182;2023-12-20T05:15:04;99847.09;;;3.78;100.00
12594;BME280;6362;50.208;9.182;2023-12-20T05:17:30;99851.34;;;3.77;100.00
12594;BME280;6362;50.208;9.182;2023-12-20T05:19:56;99844.66;;;3.85;100.00
12594;BME280;6362;50.208;9.182;2023-12-20T05:22:21;99862.59;;;3.82;100.00
12594;BME280;6362;50.208;9.182;2023-12-20T05:24:46;99869.34;;;3.77;100.00
12594;BME280;6362;50.208;9.182;2023-12-20T05:27:12;99866.78;;;3.77;100.00
12594;BME280;6362;50.208;9.182;2023-12-20T05:29:37;99866.03;;;3.83;100.00
12594;BME280;6362;50.208;9.182;2023-12-20T05:32:03;99872.00;;;3.82;100.00
12594;BME280;6362;50.208;9.182;2023-12-20T05:34:32;99877.97;;;3.79;100.00
12594;BME280;6362;50.208;9.182;2023-12-20T05:36:58;99877.97;;;3.78;100.00
12594;BME280;6362;50.208;9.182;2023-12-20T05:39:23;99884.94;;;3.83;100.00
12594;BME280;6362;50.208;9.182;2023-12-20T05:41:49;99890.06;;;3.83;100.00
12594;BME280;6362;50.208;9.182;2023-12-20T05:44:14;99886.81;;;3.93;100.00
12594;BME280;6362;50.208;9.182;2023-12-20T05:46:40;99900.38;;;3.85;100.00
12594;BME280;6362;50.208;9.182;2023-12-20T05:49:05;99898.69;;;3.87;100.00
12594;BME280;6362;50.208;9.182;2023-12-20T05:51:31;99904.03;;;3.96;100.00
12594;BME280;6362;50.208;9.182;2023-12-20T05:53:56;99894.53;;;3.93;100.00
12594;BME280;6362;50.208;9.182;2023-12-20T05:56:22;99896.13;;;3.88;100.00
12594;BME280;6362;50.208;9.182;2023-12-20T05:58:47;99901.28;;;3.88;100.00
12594;BME280;6362;50.208;9.182;2023-12-20T06:01:14;99906.38;;;3.85;100.00
12594;BME280;6362;50.208;9.182;2023-12-20T06:03:43;99897.72;;;3.80;100.00
12594;BME280;6362;50.208;9.182;2023-12-20T06:06:09;99899.41;;;3.78;100.00
12594;BME280;6362;50.208;9.182;2023-12-20T06:08:36;99897.63;;;3.76;100.00
12594;BME280;6362;50.208;9.182;2023-12-20T06:11:01;99905.19;;;3.68;100.00
12594;BME280;6362;50.208;9.182;2023-12-20T06:13:27;99907.75;;;3.66;100.00
12594;BME280;6362;50.208;9.182;2023-12-20T06:15:54;99911.13;;;3.64;100.00
12594;BME280;6362;50.208;9.182;2023-12-20T06:18:20;99925.66;;;3.62;100.00
12594;BME280;6362;50.208;9.182;2023-12-20T06:20:46;99923.19;;;3.68;100.00
12594;BME280;6362;50.208;9.182;2023-12-20T06:23:11;99926.53;;;3.64;100.00
12594;BME280;6362;50.208;9.182;2023-12-20T06:25:37;99940.16;;;3.60;100.00
12594;BME280;6362;50.208;9.182;2023-12-20T06:28:02;99941.81;;;3.56;100.00
12594;BME280;6362;50.208;9.182;2023-12-20T06:30:28;99940.97;;;3.57;100.00
12594;BME280;6362;50.208;9.182;2023-12-20T06:32:54;99938.31;;;3.53;100.00
12594;BME280;6362;50.208;9.182;2023-12-20T06:35:20;99933.03;;;3.47;100.00
12594;BME280;6362;50.208;9.182;2023-12-20T06:37:45;99918.41;;;3.44;100.00
12594;BME280;6362;50.208;9.182;2023-12-20T06:40:11;99912.34;;;3.39;100.00
12594;BME280;6362;50.208;9.182;2023-12-20T06:42:37;99919.84;;;3.31;100.00
12594;BME280;6362;50.208;9.182;2023-12-20T06:45:03;99926.66;;;3.28;100.00
12594;BME280;6362;50.208;9.182;2023-12-20T06:47:29;99915.31;;;3.20;100.00
12594;BME280;6362;50.208;9.182;2023-12-20T06:49:54;99926.31;;;3.12;100.00
12594;BME280;6362;50.208;9.182;2023-12-20T06:52:20;99920.19;;;3.06;100.00
12594;BME280;6362;50.208;9.182;2023-12-20T06:54:45;99928.63;;;3.02;100.00
12594;BME280;6362;50.208;9.182;2023-12-20T06:57:11;99928.56;;;2.99;100.00
12594;BME280;6362;50.208;9.182;2023-12-20T06:59:40;99923.41;;;2.99;100.00
12594;BME280;6362;50.208;9.182;2023-12-20T07:02:06;99924.13;;;2.91;100.00
12594;BME280;6362;50.208;9.182;2023-12-20T07:04:31;99924.81;;;2.84;100.00
12594;BME280;6362;50.208;9.182;2023-12-20T07:06:57;99928.97;;;2.78;100.00
12594;BME280;6362;50.208;9.182;2023-12-20T07:09:26;99927.09;;;2.72;100.00
12594;BME280;6362;50.208;9.182;2023-12-20T07:11:51;99945.09;;;2.74;100.00
12594;BME280;6362;50.208;9.182;2023-12-20T07:14:17;99945.09;;;2.72;100.00
12594;BME280;6362;50.208;9.182;2023-12-20T07:16:42;99946.84;;;2.75;100.00
12594;BME280;6362;50.208;9.182;2023-12-20T07:19:08;99946.03;;;2.77;100.00
12594;BME280;6362;50.208;9.182;2023-12-20T07:21:33;99953.72;;;2.76;100.00
12594;BME280;6362;50.208;9.182;2023-12-20T07:23:59;99955.41;;;2.75;100.00
12594;BME280;6362;50.208;9.182;2023-12-20T07:26:24;99961.41;;;2.76;100.00
12594;BME280;6362;50.208;9.182;2023-12-20T07:28:49;99965.84;;;2.83;100.00
12594;BME280;6362;50.208;9.182;2023-12-20T07:31:16;99954.72;;;2.82;100.00
12594;BME280;6362;50.208;9.182;2023-12-20T07:33:41;99957.28;;;2.82;100.00
12594;BME280;6362;50.208;9.182;2023-12-20T07:36:07;99960.91;;;2.89;100.00
12594;BME280;6362;50.208;9.182;2023-12-20T07:38:33;99959.25;;;2.92;100.00
12594;BME280;6362;50.208;9.182;2023-12-20T07:40:58;99967.78;;;3.28;100.00
12594;BME280;6362;50.208;9.182;2023-12-20T07:43:24;99965.53;;;4.28;100.00
12594;BME280;6362;50.208;9.182;2023-12-20T07:45:49;99965.94;;;5.05;100.00
12594;BME280;6362;50.208;9.182;2023-12-20T07:48:15;99964.97;;;4.97;100.00
12594;BME280;6362;50.208;9.182;2023-12-20T07:50:41;99969.09;;;4.87;100.00
12594;BME280;6362;50.208;9.182;2023-12-20T07:53:07;99968.00;;;4.73;100.00
12594;BME280;6362;50.208;9.182;2023-12-20T07:55:33;99950.69;;;4.66;100.00
12594;BME280;6362;50.208;9.182;2023-12-20T07:57:59;99964.72;;;4.82;100.00
12594;BME280;6362;50.208;9.182;2023-12-20T08:00:24;99959.34;;;4.68;100.00
12594;BME280;6362;50.208;9.182;2023-12-20T08:02:50;99965.88;;;4.49;100.00
12594;BME280;6362;50.208;9.182;2023-12-20T08:05:15;99962.22;;;4.36;100.00
12594;BME280;6362;50.208;9.182;2023-12-20T08:07:41;99966.22;;;4.20;100.00
12594;BME280;6362;50.208;9.182;2023-12-20T08:10:06;99967.81;;;4.14;100.00
12594;BME280;6362;50.208;9.182;2023-12-20T08:12:32;99972.09;;;4.12;100.00
12594;BME280;6362;50.208;9.182;2023-12-20T08:14:58;99977.13;;;4.06;100.00
12594;BME280;6362;50.208;9.182;2023-12-20T08:17:24;99975.28;;;4.00;100.00
12594;BME280;6362;50.208;9.182;2023-12-20T08:19:49;99971.69;;;3.93;100.00
12594;BME280;6362;50.208;9.182;2023-12-20T08:22:15;99971.63;;;3.89;100.00
12594;BME280;6362;50.208;9.182;2023-12-20T08:24:40;99980.38;;;3.97;100.00
12594;BME280;6362;50.208;9.182;2023-12-20T08:27:06;99988.06;;;3.95;100.00
12594;BME280;6362;50.208;9.182;2023-12-20T08:29:31;99980.34;;;3.95;100.00
12594;BME280;6362;50.208;9.182;2023-12-20T08:31:57;99980.44;;;4.00;100.00
12594;BME280;6362;50.208;9.182;2023-12-20T08:34:23;99977.78;;;3.95;100.00
12594;BME280;6362;50.208;9.182;2023-12-20T08:36:51;99962.44;;;4.00;100.00
12594;BME280;6362;50.208;9.182;2023-12-20T08:39:17;99970.28;;;4.08;100.00
12594;BME280;6362;50.208;9.182;2023-12-20T08:41:43;99960.09;;;4.14;100.00
12594;BME280;6362;50.208;9.182;2023-12-20T08:44:09;99961.69;;;4.07;100.00
12594;BME280;6362;50.208;9.182;2023-12-20T08:46:35;99963.44;;;4.08;100.00
12594;BME280;6362;50.208;9.182;2023-12-20T08:49:02;99967.72;;;4.08;100.00
12594;BME280;6362;50.208;9.182;2023-12-20T08:51:27;99961.94;;;4.21;100.00
12594;BME280;6362;50.208;9.182;2023-12-20T08:53:53;99956.88;;;4.24;100.00
12594;BME280;6362;50.208;9.182;2023-12-20T08:56:19;99957.53;;;4.14;100.00
12594;BME280;6362;50.208;9.182;2023-12-20T08:58:46;99966.00;;;4.08;100.00
12594;BME280;6362;50.208;9.182;2023-12-20T09:01:12;99965.06;;;4.05;100.00
12594;BME280;6362;50.208;9.182;2023-12-20T09:03:37;99967.59;;;4.02;100.00
12594;BME280;6362;50.208;9.182;2023-12-20T09:06:03;99977.88;;;4.00;100.00
12594;BME280;6362;50.208;9.182;2023-12-20T09:08:28;99978.66;;;3.97;100.00
12594;BME280;6362;50.208;9.182;2023-12-20T09:10:54;99974.53;;;4.06;100.00
12594;BME280;6362;50.208;9.182;2023-12-20T09:13:19;99969.41;;;4.06;100.00
12594;BME280;6362;50.208;9.182;2023-12-20T09:15:46;99966.00;;;4.10;100.00
12594;BME280;6362;50.208;9.182;2023-12-20T09:18:11;99973.94;;;4.20;100.00
12594;BME280;6362;50.208;9.182;2023-12-20T09:20:37;99980.88;;;4.23;100.00
12594;BME280;6362;50.208;9.182;2023-12-20T09:23:02;99976.94;;;4.43;100.00
12594;BME280;6362;50.208;9.182;2023-12-20T09:25:28;99981.31;;;4.49;100.00
12594;BME280;6362;50.208;9.182;2023-12-20T09:27:55;99974.69;;;4.62;100.00
12594;BME280;6362;50.208;9.182;2023-12-20T09:30:20;99984.53;;;4.86;100.00
12594;BME280;6362;50.208;9.182;2023-12-20T09:32:46;99983.09;;;5.04;100.00
12594;BME280;6362;50.208;9.182;2023-12-20T09:35:11;99984.09;;;5.11;100.00
12594;BME280;6362;50.208;9.182;2023-12-20T09:37:37;99976.38;;;5.14;100.00
12594;BME280;6362;50.208;9.182;2023-12-20T09:40:03;99978.88;;;5.08;100.00
12594;BME280;6362;50.208;9.182;2023-12-20T09:45:08;99981.53;;;5.13;100.00
12594;BME280;6362;50.208;9.182;2023-12-20T09:47:35;99982.28;;;5.06;100.00
12594;BME280;6362;50.208;9.182;2023-12-20T09:50:02;99981.28;;;4.99;100.00
12594;BME280;6362;50.208;9.182;2023-12-20T09:52:28;99982.13;;;4.95;100.00
12594;BME280;6362;50.208;9.182;2023-12-20T09:54:55;99982.91;;;4.91;100.00
12594;BME280;6362;50.208;9.182;2023-12-20T09:57:21;99982.81;;;4.85;100.00
12594;BME280;6362;50.208;9.182;2023-12-20T09:59:47;99979.31;;;4.81;100.00
12594;BME280;6362;50.208;9.182;2023-12-20T10:02:13;99979.19;;;4.73;100.00
12594;BME280;6362;50.208;9.182;2023-12-20T10:04:46;99975.09;;;4.86;100.00
12594;BME280;6362;50.208;9.182;2023-12-20T10:07:13;99973.28;;;4.79;100.00
12594;BME280;6362;50.208;9.182;2023-12-20T10:09:38;99969.94;;;4.86;100.00
12594;BME280;6362;50.208;9.182;2023-12-20T10:12:04;99980.91;;;4.73;100.00
12594;BME280;6362;50.208;9.182;2023-12-20T10:14:30;99974.91;;;4.74;100.00
12594;BME280;6362;50.208;9.182;2023-12-20T10:17:04;99974.94;;;4.77;100.00
12594;BME280;6362;50.208;9.182;2023-12-20T10:19:30;99965.56;;;4.81;100.00
12594;BME280;6362;50.208;9.182;2023-12-20T10:21:56;99971.56;;;4.80;100.00
12594;BME280;6362;50.208;9.182;2023-12-20T10:24:21;99964.09;;;4.96;100.00
12594;BME280;6362;50.208;9.182;2023-12-20T10:26:46;99958.00;;;4.93;100.00
12594;BME280;6362;50.208;9.182;2023-12-20T10:29:12;99956.44;;;5.01;100.00
12594;BME280;6362;50.208;9.182;2023-12-20T10:31:37;99957.28;;;5.00;100.00
12594;BME280;6362;50.208;9.182;2023-12-20T10:34:07;99925.47;;;4.99;100.00
12594;BME280;6362;50.208;9.182;2023-12-20T10:36:33;99921.13;;;4.95;100.00
12594;BME280;6362;50.208;9.182;2023-12-20T10:38:59;99924.56;;;4.96;100.00
12594;BME280;6362;50.208;9.182;2023-12-20T10:41:29;99930.63;;;4.99;100.00
12594;BME280;6362;50.208;9.182;2023-12-20T10:43:58;99937.47;;;4.96;100.00
12594;BME280;6362;50.208;9.182;2023-12-20T10:46:25;99927.19;;;4.99;100.00
12594;BME280;6362;50.208;9.182;2023-12-20T10:48:53;99923.09;;;5.12;100.00
12594;BME280;6362;50.208;9.182;2023-12-20T10:51:20;99922.31;;;5.19;100.00
12594;BME280;6362;50.208;9.182;2023-12-20T10:53:47;99928.28;;;5.16;100.00
12594;BME280;6362;50.208;9.182;2023-12-20T10:56:16;99928.25;;;5.13;100.00
12594;BME280;6362;50.208;9.182;2023-12-20T10:58:42;99918.91;;;5.20;100.00
12594;BME280;6362;50.208;9.182;2023-12-20T11:01:12;99902.56;;;5.21;100.00
12594;BME280;6362;50.208;9.182;2023-12-20T11:03:51;99908.59;;;5.21;100.00
12594;BME280;6362;50.208;9.182;2023-12-20T11:09:01;99894.03;;;5.22;100.00
12594;BME280;6362;50.208;9.182;2023-12-20T11:14:41;99903.41;;;5.18;100.00
12594;BME280;6362;50.208;9.182;2023-12-20T11:17:09;99897.41;;;5.19;100.00
12594;BME280;6362;50.208;9.182;2023-12-20T11:19:38;99897.53;;;5.28;100.00
12594;BME280;6362;50.208;9.182;2023-12-20T11:22:08;99900.84;;;5.18;100.00
12594;BME280;6362;50.208;9.182;2023-12-20T11:24:34;99894.91;;;5.27;100.00
12594;BME280;6362;50.208;9.182;2023-12-20T11:27:03;99901.75;;;5.23;100.00
12594;BME280;6362;50.208;9.182;2023-12-20T11:31:54;99885.50;;;5.27;100.00
12594;BME280;6362;50.208;9.182;2023-12-20T11:34:20;99875.06;;;5.21;100.00
12594;BME280;6362;50.208;9.182;2023-12-20T11:36:45;99891.31;;;5.13;100.00
12594;BME280;6362;50.208;9.182;2023-12-20T11:39:11;99897.31;;;5.13;100.00
12594;BME280;6362;50.208;9.182;2023-12-20T11:41:37;99889.63;;;5.16;100.00
12594;BME280;6362;50.208;9.182;2023-12-20T11:44:04;99898.19;;;5.14;100.00
12594;BME280;6362;50.208;9.182;2023-12-20T11:46:31;99888.72;;;5.11;100.00
12594;BME280;6362;50.208;9.182;2023-12-20T11:48:56;99893.94;;;5.17;100.00
12594;BME280;6362;50.208;9.182;2023-12-20T11:51:22;99887.81;;;5.11;100.00
12594;BME280;6362;50.208;9.182;2023-12-20T11:53:51;99889.63;;;5.16;100.00
12594;BME280;6362;50.208;9.182;2023-12-20T11:56:18;99890.53;;;5.18;100.00
12594;BME280;6362;50.208;9.182;2023-12-20T11:58:44;99883.66;;;5.20;100.00
12594;BME280;6362;50.208;9.182;2023-12-20T12:01:09;99871.63;;;5.19;100.00
12594;BME280;6362;50.208;9.182;2023-12-20T12:03:35;99876.84;;;5.24;100.00
12594;BME280;6362;50.208;9.182;2023-12-20T12:06:01;99880.28;;;5.24;100.00
12594;BME280;6362;50.208;9.182;2023-12-20T12:08:29;99867.53;;;5.35;100.00
12594;BME280;6362;50.208;9.182;2023-12-20T12:10:55;99867.47;;;5.32;100.00
12594;BME280;6362;50.208;9.182;2023-12-20T12:13:21;99860.59;;;5.31;100.00
12594;BME280;6362;50.208;9.182;2023-12-20T12:15:48;99861.38;;;5.25;100.00
12594;BME280;6362;50.208;9.182;2023-12-20T12:18:16;99858.94;;;5.33;100.00
12594;BME280;6362;50.208;9.182;2023-12-20T12:20:42;99864.94;;;5.34;100.00
12594;BME280;6362;50.208;9.182;2023-12-20T12:23:07;99860.59;;;5.31;100.00
12594;BME280;6362;50.208;9.182;2023-12-20T12:25:36;99860.84;;;5.51;100.00
12594;BME280;6362;50.208;9.182;2023-12-20T12:28:03;99858.28;;;5.51;100.00
12594;BME280;6362;50.208;9.182;2023-12-20T12:30:28;99857.38;;;5.49;100.00
12594;BME280;6362;50.208;9.182;2023-12-20T12:32:56;99857.41;;;5.50;100.00
12594;BME280;6362;50.208;9.182;2023-12-20T12:35:22;99866.09;;;5.60;100.00
12594;BME280;6362;50.208;9.182;2023-12-20T12:37:47;99854.22;;;5.73;100.00
12594;BME280;6362;50.208;9.182;2023-12-20T12:40:14;99849.13;;;5.79;100.00
12594;BME280;6362;50.208;9.182;2023-12-20T12:42:42;99843.16;;;5.88;100.00
12594;BME280;6362;50.208;9.182;2023-12-20T12:45:09;99838.91;;;5.90;100.00
12594;BME280;6362;50.208;9.182;2023-12-20T12:47:35;99839.00;;;5.94;100.00
12594;BME280;6362;50.208;9.182;2023-12-20T12:50:00;99835.63;;;6.04;100.00
12594;BME280;6362;50.208;9.182;2023-12-20T12:52:26;99830.44;;;6.00;100.00
12594;BME280;6362;50.208;9.182;2023-12-20T12:54:53;99826.03;;;5.91;100.00
12594;BME280;6362;50.208;9.182;2023-12-20T12:57:18;99827.75;;;5.92;100.00
12594;BME280;6362;50.208;9.182;2023-12-20T12:59:44;99821.66;;;5.84;100.00
12594;BME280;6362;50.208;9.182;2023-12-20T13:02:13;99805.44;;;5.94;100.00
12594;BME280;6362;50.208;9.182;2023-12-20T13:04:39;99796.84;;;5.98;100.00
12594;BME280;6362;50.208;9.182;2023-12-20T13:07:06;99809.00;;;6.10;100.00
12594;BME280;6362;50.208;9.182;2023-12-20T13:09:32;99787.47;;;6.08;100.00
12594;BME280;6362;50.208;9.182;2023-12-20T13:11:57;99774.59;;;6.14;100.00
12594;BME280;6362;50.208;9.182;2023-12-20T13:14:23;99780.56;;;6.05;100.00